Time;durP1;ratioP1;P1;durP2;ratioP2;P2;SDS_P1;SDS_P2;PMS_P1;PMS_P2;Temp;Humidity;BMP_temperature;BMP_pressure;BME280_temperature;BME280_humidity;BME280_pressure;Samples;Min_cycle;Max_cycle;Signal;HPM_P1;HPM_P2
2023/10/23 00:02:19;;;;;;;4.03;1.90;;;;;;;;;;5060924;28;20024;-87
2023/10/23 00:04:54;;;;;;;4.18;1.88;;;;;;;;;;5084660;28;20023;-86
2023/10/23 00:07:19;;;;;;;2.35;1.42;;;;;;;;;;5063051;28;20020;-89
2023/10/23 00:09:44;;;;;;;6.45;2.65;;;;;;;;;;5086594;28;20066;-86
2023/10/23 00:12:10;;;;;;;2.95;1.52;;;;;;;;;;5086824;28;20083;-88
2023/10/23 00:14:35;;;;;;;3.00;1.98;;;;;;;;;;5082513;28;20472;-87
2023/10/23 00:17:01;;;;;;;8.43;2.10;;;;;;;;;;5062289;28;20028;-87
2023/10/23 00:22:44;;;;;;;3.90;1.80;;;;;;;;;;5073374;28;20067;-87
2023/10/23 00:25:10;;;;;;;2.67;2.00;;;;;;;;;;5075383;28;20028;-86
2023/10/23 00:28:32;;;;;;;;;;;;;;;;;;;;;
2023/10/23 00:31:01;;;;;;;;;;;;;;;;;;4969980;28;20420;-87
2023/10/23 00:33:27;;;;;;;3.75;2.30;;;;;;;;;;5064732;28;19916;-86
2023/10/23 00:35:55;;;;;;;3.05;2.10;;;;;;;;;;5085099;28;20072;-88
2023/10/23 00:38:20;;;;;;;5.60;2.58;;;;;;;;;;5078616;28;20023;-88
2023/10/23 00:40:46;;;;;;;7.93;2.38;;;;;;;;;;5075920;28;20103;-87
2023/10/23 00:43:18;;;;;;;1.92;1.80;;;;;;;;;;5052980;28;20037;-87
2023/10/23 00:45:48;;;;;;;;;;;;;;;;;;5080090;28;20086;-85
2023/10/23 00:48:14;;;;;;;3.53;1.85;;;;;;;;;;5060896;28;19912;-86
2023/10/23 00:50:39;;;;;;;6.05;2.58;;;;;;;;;;5079453;28;20053;-86
2023/10/23 00:53:05;;;;;;;3.28;2.00;;;;;;;;;;5057021;28;20040;-87
2023/10/23 00:55:31;;;;;;;5.88;2.45;;;;;;;;;;5074507;28;20579;-87
2023/10/23 00:57:57;;;;;;;4.32;1.95;;;;;;;;;;5078727;28;20039;-87
2023/10/23 01:00:22;;;;;;;4.68;2.30;;;;;;;;;;5072024;28;20044;-86
2023/10/23 01:02:49;;;;;;;2.35;1.92;;;;;;;;;;5061651;28;20020;-89
2023/10/23 01:05:14;;;;;;;2.22;2.00;;;;;;;;;;5054578;28;20028;-87
2023/10/23 01:07:40;;;;;;;3.70;2.17;;;;;;;;;;5058422;28;20031;-87
2023/10/23 01:10:08;;;;;;;3.42;2.35;;;;;;;;;;5059365;28;20032;-87
2023/10/23 01:12:34;;;;;;;4.90;2.13;;;;;;;;;;5077089;28;20101;-87
2023/10/23 01:14:59;;;;;;;2.53;2.00;;;;;;;;;;5052728;28;20033;-88
2023/10/23 01:17:24;;;;;;;2.40;2.15;;;;;;;;;;5057915;28;20028;-86
2023/10/23 01:19:50;;;;;;;7.40;2.60;;;;;;;;;;5076081;28;20016;-86
2023/10/23 01:22:15;;;;;;;4.53;2.45;;;;;;;;;;5080999;28;20072;-85
2023/10/23 01:24:44;;;;;;;3.83;2.35;;;;;;;;;;5053298;28;20033;-86
2023/10/23 01:27:10;;;;;;;6.75;2.53;;;;;;;;;;5073240;28;20095;-86
2023/10/23 01:29:35;;;;;;;4.50;1.98;;;;;;;;;;5072672;28;20439;-85
2023/10/23 01:32:00;;;;;;;2.25;1.88;;;;;;;;;;5052467;28;20502;-86
2023/10/23 01:34:26;;;;;;;4.13;2.17;;;;;;;;;;5051432;28;20557;-85
2023/10/23 01:36:51;;;;;;;3.00;2.03;;;;;;;;;;5077022;28;20111;-87
2023/10/23 01:39:17;;;;;;;2.20;2.00;;;;;;;;;;5086893;28;20056;-88
2023/10/23 01:41:42;;;;;;;2.00;1.80;;;;;;;;;;5080699;28;20015;-87
2023/10/23 01:44:08;;;;;;;3.08;1.73;;;;;;;;;;5074583;28;20036;-86
2023/10/23 01:46:34;;;;;;;4.97;2.70;;;;;;;;;;5060863;28;20040;-86
2023/10/23 01:48:59;;;;;;;8.90;3.72;;;;;;;;;;5047426;28;20016;-87
2023/10/23 01:51:25;;;;;;;5.07;3.70;;;;;;;;;;5070434;28;20047;-85
2023/10/23 01:53:50;;;;;;;10.25;4.90;;;;;;;;;;5072585;28;20017;-86
2023/10/23 01:56:15;;;;;;;10.55;5.32;;;;;;;;;;5075355;28;20086;-85
2023/10/23 01:58:41;;;;;;;11.20;4.57;;;;;;;;;;5073566;28;20036;-85
2023/10/23 02:01:06;;;;;;;3.38;2.30;;;;;;;;;;5071734;28;20033;-86
2023/10/23 02:03:31;;;;;;;2.65;1.98;;;;;;;;;;5075323;28;20040;-86
2023/10/23 02:05:57;;;;;;;2.60;2.40;;;;;;;;;;5071165;28;20028;-85
2023/10/23 02:08:23;;;;;;;2.53;1.85;;;;;;;;;;5074154;28;20103;-87
2023/10/23 02:10:50;;;;;;;3.05;2.28;;;;;;;;;;5074986;28;20028;-86
2023/10/23 02:13:15;;;;;;;2.90;2.05;;;;;;;;;;5076391;28;20027;-86
2023/10/23 02:15:41;;;;;;;4.28;2.55;;;;;;;;;;5064170;28;20028;-86
2023/10/23 02:18:07;;;;;;;4.50;2.65;;;;;;;;;;5076722;28;20042;-85
2023/10/23 02:20:32;;;;;;;5.82;2.33;;;;;;;;;;5057697;28;20044;-86
2023/10/23 02:22:58;;;;;;;5.25;2.85;;;;;;;;;;5081064;28;20021;-86
2023/10/23 02:25:24;;;;;;;5.88;3.08;;;;;;;;;;5078698;28;20021;-87
2023/10/23 02:27:49;;;;;;;4.45;2.88;;;;;;;;;;5054866;28;20171;-87
2023/10/23 02:30:14;;;;;;;2.92;2.22;;;;;;;;;;5072267;28;20028;-87
2023/10/23 02:32:40;;;;;;;4.18;2.80;;;;;;;;;;5055291;28;20044;-89
2023/10/23 02:35:05;;;;;;;5.85;3.53;;;;;;;;;;5079741;28;20028;-87
2023/10/23 02:37:31;;;;;;;2.97;2.42;;;;;;;;;;5073690;28;20237;-87
2023/10/23 02:39:56;;;;;;;6.53;2.60;;;;;;;;;;5081118;28;20028;-87
2023/10/23 02:42:22;;;;;;;3.50;2.67;;;;;;;;;;5058621;28;20033;-86
2023/10/23 02:44:47;;;;;;;5.88;2.78;;;;;;;;;;5070418;28;20036;-86
2023/10/23 02:47:13;;;;;;;4.60;2.67;;;;;;;;;;5072109;28;20048;-85
2023/10/23 02:49:38;;;;;;;3.25;2.50;;;;;;;;;;5075668;28;20028;-86
2023/10/23 02:52:04;;;;;;;7.20;3.10;;;;;;;;;;5072827;28;20035;-86
2023/10/23 02:54:29;;;;;;;5.85;2.15;;;;;;;;;;5055611;28;20059;-85
2023/10/23 02:56:55;;;;;;;3.83;2.60;;;;;;;;;;5074321;28;20071;-85
2023/10/23 02:59:21;;;;;;;3.35;2.30;;;;;;;;;;5074264;28;20352;-87
2023/10/23 03:01:46;;;;;;;4.05;2.63;;;;;;;;;;5079215;28;20500;-88
2023/10/23 03:04:12;;;;;;;6.45;2.58;;;;;;;;;;5057695;28;20040;-87
2023/10/23 03:06:37;;;;;;;5.18;2.65;;;;;;;;;;5079956;28;20024;-86
2023/10/23 03:09:03;;;;;;;5.00;3.03;;;;;;;;;;5057180;28;20067;-88
2023/10/23 03:11:28;;;;;;;5.30;2.28;;;;;;;;;;5051255;28;20040;-85
2023/10/23 03:13:54;;;;;;;4.93;2.17;;;;;;;;;;5049878;28;20033;-87
2023/10/23 03:16:19;;;;;;;2.38;2.17;;;;;;;;;;5055685;28;20037;-87
2023/10/23 03:18:44;;;;;;;4.38;2.47;;;;;;;;;;5054927;28;20074;-86
2023/10/23 03:21:10;;;;;;;3.00;2.50;;;;;;;;;;5057733;28;20021;-86
2023/10/23 03:23:35;;;;;;;7.60;3.28;;;;;;;;;;5078765;28;20059;-86
2023/10/23 03:26:01;;;;;;;5.82;2.40;;;;;;;;;;5061024;28;20125;-88
2023/10/23 03:28:27;;;;;;;5.35;1.80;;;;;;;;;;5085384;28;20140;-87
2023/10/23 03:30:52;;;;;;;2.55;2.25;;;;;;;;;;5084093;28;20043;-86
2023/10/23 03:33:17;;;;;;;4.07;2.80;;;;;;;;;;5081256;28;20033;-87
2023/10/23 03:35:43;;;;;;;4.88;2.15;;;;;;;;;;5083698;28;20028;-86
2023/10/23 03:38:09;;;;;;;3.03;2.25;;;;;;;;;;5073763;28;20033;-84
2023/10/23 03:40:34;;;;;;;4.00;2.22;;;;;;;;;;5079539;28;20024;-86
2023/10/23 03:43:00;;;;;;;3.10;2.13;;;;;;;;;;5082386;28;20036;-87
2023/10/23 03:45:25;;;;;;;2.60;2.17;;;;;;;;;;5059133;28;20035;-86
2023/10/23 03:47:50;;;;;;;4.30;2.33;;;;;;;;;;5087445;28;20021;-86
2023/10/23 03:50:16;;;;;;;7.75;3.50;;;;;;;;;;5073559;28;20025;-86
2023/10/23 03:52:41;;;;;;;6.40;3.47;;;;;;;;;;5061176;28;20035;-86
2023/10/23 03:55:07;;;;;;;7.10;3.92;;;;;;;;;;5057795;28;20025;-86
2023/10/23 03:57:33;;;;;;;5.25;3.67;;;;;;;;;;5060405;28;20047;-85
2023/10/23 03:59:58;;;;;;;6.50;3.65;;;;;;;;;;5056255;28;20035;-89
2023/10/23 04:02:24;;;;;;;10.45;4.13;;;;;;;;;;5080054;28;20443;-87
2023/10/23 04:04:49;;;;;;;8.10;3.72;;;;;;;;;;5085650;28;20048;-86
2023/10/23 04:07:14;;;;;;;5.47;3.30;;;;;;;;;;5058711;28;20436;-85
2023/10/23 04:09:40;;;;;;;2.95;2.63;;;;;;;;;;5085229;28;20027;-85
2023/10/23 04:12:05;;;;;;;4.88;3.15;;;;;;;;;;5081837;28;20392;-85
2023/10/23 04:14:31;;;;;;;4.40;3.28;;;;;;;;;;5085726;28;20044;-86
2023/10/23 04:16:56;;;;;;;4.65;2.92;;;;;;;;;;5063446;28;20072;-87
2023/10/23 04:19:22;;;;;;;7.68;3.17;;;;;;;;;;5076076;28;20504;-86
2023/10/23 04:21:47;;;;;;;3.17;2.42;;;;;;;;;;5056261;28;20044;-86
2023/10/23 04:24:13;;;;;;;3.25;2.72;;;;;;;;;;5078648;28;20035;-85
2023/10/23 04:26:38;;;;;;;4.20;2.47;;;;;;;;;;5064673;28;20500;-85
2023/10/23 04:29:04;;;;;;;4.60;2.92;;;;;;;;;;5064963;28;20033;-85
2023/10/23 04:31:30;;;;;;;3.13;2.58;;;;;;;;;;5057800;28;20036;-85
2023/10/23 04:33:55;;;;;;;4.05;2.47;;;;;;;;;;5059966;28;20063;-86
2023/10/23 04:36:21;;;;;;;4.95;2.67;;;;;;;;;;5082765;28;20047;-85
2023/10/23 04:38:47;;;;;;;4.50;2.67;;;;;;;;;;5051961;28;20052;-84
2023/10/23 04:41:12;;;;;;;4.28;2.88;;;;;;;;;;5065630;28;20076;-86
2023/10/23 04:43:37;;;;;;;4.45;2.88;;;;;;;;;;5074173;28;20474;-83
2023/10/23 04:46:03;;;;;;;3.88;2.75;;;;;;;;;;5082773;28;20040;-86
2023/10/23 04:48:28;;;;;;;4.10;2.85;;;;;;;;;;5077406;28;20039;-86
2023/10/23 04:50:58;;;;;;;7.45;2.67;;;;;;;;;;5066722;28;20392;-87
2023/10/23 04:53:23;;;;;;;5.80;2.65;;;;;;;;;;5061890;28;20028;-85
2023/10/23 04:55:49;;;;;;;4.55;2.70;;;;;;;;;;5080240;28;20024;-85
2023/10/23 04:58:14;;;;;;;6.93;2.55;;;;;;;;;;5057774;28;20052;-84
2023/10/23 05:00:40;;;;;;;5.15;2.97;;;;;;;;;;5080340;28;20080;-84
2023/10/23 05:03:05;;;;;;;7.32;2.80;;;;;;;;;;5097472;28;20017;-83
2023/10/23 05:05:31;;;;;;;5.28;1.90;;;;;;;;;;5084915;28;20040;-85
2023/10/23 05:07:57;;;;;;;7.10;2.75;;;;;;;;;;5077205;28;20035;-84
2023/10/23 05:10:23;;;;;;;5.85;2.42;;;;;;;;;;5059647;28;20032;-85
2023/10/23 05:12:49;;;;;;;3.60;2.20;;;;;;;;;;5061612;28;20031;-85
2023/10/23 05:15:16;;;;;;;6.10;2.42;;;;;;;;;;5077522;28;20024;-85
2023/10/23 05:17:41;;;;;;;4.63;2.80;;;;;;;;;;5053270;28;20028;-86
2023/10/23 05:20:07;;;;;;;3.85;2.47;;;;;;;;;;5061346;28;20491;-87
2023/10/23 05:22:33;;;;;;;3.13;2.30;;;;;;;;;;5060845;28;20113;-88
2023/10/23 05:24:59;;;;;;;4.88;3.10;;;;;;;;;;5082884;28;20028;-86
2023/10/23 05:27:24;;;;;;;3.75;2.00;;;;;;;;;;5085601;28;20054;-86
2023/10/23 05:29:49;;;;;;;3.22;2.10;;;;;;;;;;5063062;28;20028;-87
2023/10/23 05:32:15;;;;;;;6.05;2.80;;;;;;;;;;5074950;28;20081;-86
2023/10/23 05:34:44;;;;;;;3.17;2.42;;;;;;;;;;5059736;28;20091;-86
2023/10/23 05:37:09;;;;;;;4.28;2.28;;;;;;;;;;5072913;28;20397;-85
2023/10/23 05:39:35;;;;;;;5.03;2.45;;;;;;;;;;5083356;28;20465;-85
2023/10/23 05:42:00;;;;;;;3.80;2.60;;;;;;;;;;5075400;28;20036;-85
2023/10/23 05:44:25;;;;;;;2.67;2.25;;;;;;;;;;5064875;28;20027;-88
2023/10/23 05:46:50;;;;;;;3.35;2.60;;;;;;;;;;5068003;28;20044;-85
2023/10/23 05:49:16;;;;;;;8.40;2.83;;;;;;;;;;5071943;28;20354;-86
2023/10/23 05:51:41;;;;;;;6.45;2.60;;;;;;;;;;5066196;28;20025;-88
2023/10/23 05:54:08;;;;;;;4.35;2.78;;;;;;;;;;5071524;28;20025;-88
2023/10/23 05:56:33;;;;;;;2.97;2.38;;;;;;;;;;5065788;28;20032;-87
2023/10/23 05:58:59;;;;;;;7.57;2.80;;;;;;;;;;5061177;28;20025;-86
2023/10/23 06:01:24;;;;;;;7.18;2.78;;;;;;;;;;5062894;28;20020;-88
2023/10/23 06:03:49;;;;;;;2.67;2.47;;;;;;;;;;5067262;28;20653;-87
2023/10/23 06:06:15;;;;;;;3.33;2.10;;;;;;;;;;5086204;28;20016;-88
2023/10/23 06:08:40;;;;;;;2.75;2.17;;;;;;;;;;5054133;28;20017;-88
2023/10/23 06:11:10;;;;;;;3.08;2.70;;;;;;;;;;5068124;28;20033;-87
2023/10/23 06:13:36;;;;;;;3.42;2.50;;;;;;;;;;5066562;28;20080;-88
2023/10/23 06:16:04;;;;;;;7.22;2.75;;;;;;;;;;5074462;28;20075;-86
2023/10/23 06:18:30;;;;;;;17.92;3.00;;;;;;;;;;5059061;28;20017;-85
2023/10/23 06:21:03;;;;;;;3.60;2.17;;;;;;;;;;5078187;28;20048;-88
2023/10/23 06:23:29;;;;;;;9.35;3.08;;;;;;;;;;5050825;28;20035;-87
2023/10/23 06:25:55;;;;;;;5.88;2.92;;;;;;;;;;5057441;28;20092;-88
2023/10/23 06:28:20;;;;;;;11.00;3.58;;;;;;;;;;5081142;28;20486;-88
2023/10/23 06:30:46;;;;;;;7.28;2.47;;;;;;;;;;5063234;28;20127;-86
2023/10/23 06:33:11;;;;;;;5.82;2.30;;;;;;;;;;5047837;28;20107;-85
2023/10/23 06:35:36;;;;;;;2.90;2.42;;;;;;;;;;5071505;28;20074;-85
2023/10/23 06:38:03;;;;;;;2.65;2.35;;;;;;;;;;5066444;28;20032;-85
2023/10/23 06:40:29;;;;;;;5.00;2.70;;;;;;;;;;5068532;28;20499;-85
2023/10/23 06:42:54;;;;;;;5.90;2.47;;;;;;;;;;5054851;28;20107;-87
2023/10/23 06:45:19;;;;;;;3.42;2.15;;;;;;;;;;5064606;28;20044;-88
2023/10/23 06:47:50;;;;;;;5.97;3.00;;;;;;;;;;5046965;28;20059;-84
2023/10/23 06:50:17;;;;;;;6.00;2.55;;;;;;;;;;5074451;28;20056;-86
2023/10/23 06:52:44;;;;;;;4.40;2.45;;;;;;;;;;5066684;28;20028;-87
2023/10/23 06:55:09;;;;;;;3.85;2.42;;;;;;;;;;5077276;28;20129;-87
2023/10/23 06:57:35;;;;;;;4.68;2.38;;;;;;;;;;5049575;28;20024;-86
2023/10/23 07:00:00;;;;;;;8.50;2.75;;;;;;;;;;5064312;28;20029;-86
2023/10/23 07:02:26;;;;;;;3.58;1.92;;;;;;;;;;5067723;28;20031;-86
2023/10/23 07:04:52;;;;;;;5.45;2.28;;;;;;;;;;5079294;28;20023;-86
2023/10/23 07:07:21;;;;;;;7.10;2.55;;;;;;;;;;5062353;28;20031;-86
2023/10/23 07:09:46;;;;;;;7.40;2.38;;;;;;;;;;5083406;28;20012;-86
2023/10/23 07:12:12;;;;;;;1.88;1.70;;;;;;;;;;5050939;28;20039;-88
2023/10/23 07:14:38;;;;;;;2.78;1.92;;;;;;;;;;5071503;28;20028;-88
2023/10/23 07:17:04;;;;;;;3.15;2.05;;;;;;;;;;5080323;28;20033;-88
2023/10/23 07:19:29;;;;;;;5.78;2.47;;;;;;;;;;5056932;28;20025;-86
2023/10/23 07:21:55;;;;;;;6.78;2.83;;;;;;;;;;5081702;28;20366;-86
2023/10/23 07:24:20;;;;;;;3.53;2.65;;;;;;;;;;5058503;28;20035;-87
2023/10/23 07:26:45;;;;;;;4.57;2.40;;;;;;;;;;5067157;28;20081;-86
2023/10/23 07:29:11;;;;;;;2.33;1.95;;;;;;;;;;5092948;28;20020;-86
2023/10/23 07:31:37;;;;;;;3.38;1.95;;;;;;;;;;5073971;28;20021;-87
2023/10/23 07:34:03;;;;;;;5.80;2.65;;;;;;;;;;5059108;28;20027;-85
2023/10/23 07:36:29;;;;;;;2.50;1.95;;;;;;;;;;5057043;28;20020;-85
2023/10/23 07:38:54;;;;;;;5.07;2.22;;;;;;;;;;5062175;28;20043;-86
2023/10/23 07:41:20;;;;;;;2.97;2.00;;;;;;;;;;5091463;28;20032;-85
2023/10/23 07:43:45;;;;;;;5.60;3.05;;;;;;;;;;5083701;28;20029;-85
2023/10/23 07:46:11;;;;;;;5.68;2.50;;;;;;;;;;5088896;28;20087;-86
2023/10/23 07:48:36;;;;;;;2.80;2.00;;;;;;;;;;5083632;28;20240;-85
2023/10/23 07:51:03;;;;;;;2.88;2.30;;;;;;;;;;5075617;28;20063;-85
2023/10/23 07:53:30;;;;;;;4.03;2.28;;;;;;;;;;5072683;28;20021;-87
2023/10/23 07:55:55;;;;;;;6.95;2.58;;;;;;;;;;5060224;28;20024;-85
2023/10/23 07:58:21;;;;;;;4.38;2.35;;;;;;;;;;5056481;28;20078;-86
2023/10/23 08:00:46;;;;;;;3.17;2.30;;;;;;;;;;5074645;28;20394;-85
2023/10/23 08:03:11;;;;;;;3.70;1.88;;;;;;;;;;5070923;28;20476;-85
2023/10/23 08:05:37;;;;;;;5.07;2.38;;;;;;;;;;5071709;28;20028;-85
2023/10/23 08:08:04;;;;;;;4.68;2.50;;;;;;;;;;5075124;28;20024;-85
2023/10/23 08:10:29;;;;;;;3.05;2.63;;;;;;;;;;5077037;28;20020;-86
2023/10/23 08:12:55;;;;;;;8.43;2.80;;;;;;;;;;5060625;28;20029;-85
2023/10/23 08:15:20;;;;;;;5.20;3.17;;;;;;;;;;5071373;28;20087;-85
2023/10/23 08:17:45;;;;;;;3.95;2.30;;;;;;;;;;5083612;28;20059;-86
2023/10/23 08:20:11;;;;;;;7.65;2.97;;;;;;;;;;5070409;28;20025;-86
2023/10/23 08:22:36;;;;;;;4.20;2.60;;;;;;;;;;5062696;28;20367;-85
2023/10/23 08:25:02;;;;;;;6.30;3.20;;;;;;;;;;5086682;28;20054;-85
2023/10/23 08:27:27;;;;;;;4.65;2.80;;;;;;;;;;5062483;28;20035;-86
2023/10/23 08:29:53;;;;;;;6.10;2.88;;;;;;;;;;5071859;28;20082;-85
2023/10/23 08:32:18;;;;;;;6.45;3.13;;;;;;;;;;5070562;28;20711;-86
2023/10/23 08:34:43;;;;;;;6.18;2.20;;;;;;;;;;5066258;28;20107;-86
2023/10/23 08:37:09;;;;;;;5.07;2.30;;;;;;;;;;5072905;28;20020;-86
2023/10/23 08:39:34;;;;;;;2.85;2.03;;;;;;;;;;5089870;28;20034;-85
2023/10/23 08:42:00;;;;;;;3.90;1.70;;;;;;;;;;5084835;28;20024;-85
2023/10/23 08:44:26;;;;;;;3.00;1.83;;;;;;;;;;5081343;28;20009;-84
2023/10/23 08:46:52;;;;;;;5.47;2.40;;;;;;;;;;5084595;28;20028;-85
2023/10/23 08:49:17;;;;;;;5.93;2.20;;;;;;;;;;5091927;28;20075;-86
2023/10/23 08:51:47;;;;;;;5.05;1.80;;;;;;;;;;5070221;28;20112;-86
2023/10/23 08:54:17;;;;;;;4.57;1.98;;;;;;;;;;5064469;28;20446;-86
2023/10/23 08:56:43;;;;;;;2.60;1.70;;;;;;;;;;5046087;28;20039;-86
2023/10/23 08:59:10;;;;;;;6.55;2.25;;;;;;;;;;5078237;28;20599;-86
2023/10/23 09:01:36;;;;;;;7.53;2.03;;;;;;;;;;5077184;28;20096;-86
2023/10/23 09:04:02;;;;;;;3.95;2.03;;;;;;;;;;5078537;28;20024;-86
2023/10/23 09:06:27;;;;;;;1.90;1.75;;;;;;;;;;5059508;28;20059;-86
2023/10/23 09:08:54;;;;;;;3.33;2.40;;;;;;;;;;5066178;28;20028;-85
2023/10/23 09:11:22;;;;;;;4.28;2.63;;;;;;;;;;5072123;28;20067;-86
2023/10/23 09:13:47;;;;;;;6.43;2.33;;;;;;;;;;5074857;28;20028;-86
2023/10/23 09:16:13;;;;;;;3.72;2.60;;;;;;;;;;5052910;28;20040;-85
2023/10/23 09:18:46;;;;;;;5.97;2.20;;;;;;;;;;5082926;28;20017;-86
2023/10/23 09:21:12;;;;;;;4.20;2.42;;;;;;;;;;5059863;28;20516;-86
2023/10/23 09:23:58;;;;;;;3.83;2.15;;;;;;;;;;5064680;28;20021;-87
2023/10/23 09:26:25;;;;;;;4.03;2.13;;;;;;;;;;5070878;28;20075;-87
2023/10/23 09:28:52;;;;;;;2.88;2.10;;;;;;;;;;5056475;28;20021;-86
2023/10/23 09:31:19;;;;;;;4.03;1.95;;;;;;;;;;5066098;28;20031;-86
2023/10/23 09:33:46;;;;;;;3.15;2.00;;;;;;;;;;5053521;28;20462;-87
2023/10/23 09:36:15;;;;;;;5.10;2.33;;;;;;;;;;5056316;28;20161;-87
2023/10/23 09:38:54;;;;;;;3.50;2.38;;;;;;;;;;5061355;28;20028;-87
2023/10/23 09:41:20;;;;;;;2.10;1.90;;;;;;;;;;5053618;28;20085;-86
2023/10/23 09:43:46;;;;;;;2.58;2.03;;;;;;;;;;5065786;28;20075;-86
2023/10/23 09:46:12;;;;;;;2.90;2.05;;;;;;;;;;5072303;28;20112;-87
2023/10/23 09:48:42;;;;;;;7.00;2.50;;;;;;;;;;5066359;28;20100;-87
2023/10/23 09:51:12;;;;;;;6.57;2.67;;;;;;;;;;5064993;28;20032;-88
2023/10/23 09:53:39;;;;;;;3.35;1.85;;;;;;;;;;5048209;28;20048;-87
2023/10/23 09:56:07;;;;;;;4.88;2.13;;;;;;;;;;5052207;28;20406;-88
2023/10/23 09:58:32;;;;;;;1.95;1.70;;;;;;;;;;5068540;28;20490;-87
2023/10/23 10:01:00;;;;;;;2.50;1.92;;;;;;;;;;5050271;28;20119;-87
2023/10/23 10:03:27;;;;;;;3.05;1.80;;;;;;;;;;5048000;28;20027;-86
2023/10/23 10:06:03;;;;;;;3.80;1.80;;;;;;;;;;5048555;28;20036;-87
2023/10/23 10:08:34;;;;;;;4.22;1.92;;;;;;;;;;5079149;28;20029;-87
2023/10/23 10:11:00;;;;;;;7.13;2.08;;;;;;;;;;5059199;28;20016;-86
2023/10/23 10:13:26;;;;;;;3.88;2.08;;;;;;;;;;5072341;28;20035;-87
2023/10/23 10:15:53;;;;;;;3.50;1.80;;;;;;;;;;5066589;28;20032;-87
2023/10/23 10:18:18;;;;;;;2.10;1.85;;;;;;;;;;5037847;28;20025;-87
2023/10/23 10:20:48;;;;;;;3.38;2.20;;;;;;;;;;5079838;28;20018;-87
2023/10/23 10:23:15;;;;;;;3.47;2.38;;;;;;;;;;5055848;28;20036;-87
2023/10/23 10:25:44;;;;;;;3.78;1.92;;;;;;;;;;5068357;28;20020;-87
2023/10/23 10:28:11;;;;;;;8.65;2.15;;;;;;;;;;5070673;28;20028;-87
2023/10/23 10:30:49;;;;;;;4.45;2.00;;;;;;;;;;5061857;28;20497;-86
2023/10/23 10:33:31;;;;;;;4.32;1.90;;;;;;;;;;5065581;28;20048;-87
2023/10/23 10:35:59;;;;;;;2.08;1.63;;;;;;;;;;5059740;28;20028;-86
2023/10/23 10:38:26;;;;;;;4.85;1.50;;;;;;;;;;5059959;28;20036;-86
2023/10/23 10:40:59;;;;;;;5.30;1.70;;;;;;;;;;5064159;28;20359;-87
2023/10/23 10:43:37;;;;;;;2.55;1.67;;;;;;;;;;5066146;28;20033;-86
2023/10/23 10:46:14;;;;;;;1.73;1.63;;;;;;;;;;5077634;28;20394;-86
2023/10/23 10:48:42;;;;;;;2.22;1.77;;;;;;;;;;5074921;28;20465;-87
2023/10/23 10:51:07;;;;;;;2.65;1.80;;;;;;;;;;5069196;28;20020;-88
2023/10/23 10:53:33;;;;;;;3.25;1.83;;;;;;;;;;5051309;28;20098;-87
2023/10/23 10:55:59;;;;;;;3.60;1.65;;;;;;;;;;5069826;28;20031;-87
2023/10/23 10:58:25;;;;;;;2.47;1.98;;;;;;;;;;5070181;28;20111;-87
2023/10/23 11:00:51;;;;;;;1.70;1.60;;;;;;;;;;5087020;28;20025;-87
2023/10/23 11:03:17;;;;;;;6.63;2.22;;;;;;;;;;5081550;28;20056;-86
2023/10/23 11:05:46;;;;;;;1.92;1.67;;;;;;;;;;5058598;28;20141;-87
2023/10/23 11:08:12;;;;;;;2.88;1.83;;;;;;;;;;5089269;28;20066;-86
2023/10/23 11:10:38;;;;;;;4.93;1.42;;;;;;;;;;5086982;28;20032;-87
2023/10/23 11:13:03;;;;;;;2.42;1.65;;;;;;;;;;5065379;28;20409;-87
2023/10/23 11:15:28;;;;;;;5.25;1.75;;;;;;;;;;5064585;28;20044;-86
2023/10/23 11:17:54;;;;;;;3.70;1.40;;;;;;;;;;5079773;28;20016;-86
2023/10/23 11:20:19;;;;;;;4.10;1.75;;;;;;;;;;5042730;28;20502;-87
2023/10/23 11:22:47;;;;;;;3.00;1.52;;;;;;;;;;5078621;28;20029;-87
2023/10/23 11:25:14;;;;;;;2.75;1.70;;;;;;;;;;5059524;28;20036;-87
2023/10/23 11:27:40;;;;;;;3.53;1.60;;;;;;;;;;5084706;28;20032;-86
2023/10/23 11:30:07;;;;;;;3.78;1.40;;;;;;;;;;5099771;28;20016;-86
2023/10/23 11:32:35;;;;;;;1.92;1.23;;;;;;;;;;5075309;28;20130;-87
2023/10/23 11:35:03;;;;;;;2.13;1.65;;;;;;;;;;5071448;28;20071;-86
2023/10/23 11:37:32;;;;;;;3.45;1.75;;;;;;;;;;5076924;28;20021;-86
2023/10/23 11:40:05;;;;;;;3.05;1.67;;;;;;;;;;5057490;28;20024;-87
2023/10/23 11:42:31;;;;;;;4.22;1.80;;;;;;;;;;5063422;28;20060;-87
2023/10/23 11:44:57;;;;;;;1.80;1.48;;;;;;;;;;5080355;28;20032;-87
2023/10/23 11:47:23;;;;;;;1.67;1.58;;;;;;;;;;5087213;28;20020;-86
2023/10/23 11:49:49;;;;;;;3.70;2.25;;;;;;;;;;5070715;28;20537;-87
2023/10/23 11:52:14;;;;;;;2.20;1.67;;;;;;;;;;5073685;28;20024;-88
2023/10/23 11:54:40;;;;;;;1.88;1.50;;;;;;;;;;5076119;28;20029;-87
2023/10/23 11:57:05;;;;;;;1.33;1.20;;;;;;;;;;5080314;28;20024;-87
2023/10/23 11:59:30;;;;;;;4.40;1.83;;;;;;;;;;5088742;28;20027;-86
2023/10/23 12:01:56;;;;;;;2.72;1.70;;;;;;;;;;5080864;28;20021;-86
2023/10/23 12:04:22;;;;;;;2.47;1.38;;;;;;;;;;5083551;28;20039;-86
2023/10/23 12:06:48;;;;;;;4.38;1.63;;;;;;;;;;5080136;28;20028;-85
2023/10/23 12:09:13;;;;;;;2.25;1.50;;;;;;;;;;5074883;28;20036;-87
2023/10/23 12:11:40;;;;;;;2.88;1.50;;;;;;;;;;5079699;28;20532;-85
2023/10/23 12:14:06;;;;;;;2.50;1.58;;;;;;;;;;5071385;28;20500;-87
2023/10/23 12:16:32;;;;;;;1.60;1.48;;;;;;;;;;5062216;28;20052;-87
2023/10/23 12:18:57;;;;;;;3.08;1.55;;;;;;;;;;5056304;28;20044;-87
2023/10/23 12:21:24;;;;;;;3.05;1.80;;;;;;;;;;5065115;28;20479;-87
2023/10/23 12:23:50;;;;;;;3.15;1.73;;;;;;;;;;5062535;28;20052;-86
2023/10/23 12:26:16;;;;;;;5.88;1.80;;;;;;;;;;5041834;28;20078;-86
2023/10/23 12:28:41;;;;;;;3.03;1.80;;;;;;;;;;5087543;28;20407;-88
2023/10/23 12:31:06;;;;;;;3.08;1.50;;;;;;;;;;5075251;28;20032;-88
2023/10/23 12:33:32;;;;;;;3.72;1.70;;;;;;;;;;5075151;28;20052;-88
2023/10/23 12:36:00;;;;;;;1.48;1.38;;;;;;;;;;5060825;28;20027;-89
2023/10/23 12:38:26;;;;;;;2.15;1.58;;;;;;;;;;5077954;28;20044;-87
2023/10/23 12:40:51;;;;;;;2.38;1.80;;;;;;;;;;5056318;28;20023;-88
2023/10/23 12:43:16;;;;;;;3.00;1.80;;;;;;;;;;5068957;28;20041;-87
2023/10/23 12:45:42;;;;;;;2.75;1.48;;;;;;;;;;5054616;28;20028;-87
2023/10/23 12:48:08;;;;;;;1.92;1.40;;;;;;;;;;5072174;28;20021;-87
2023/10/23 12:50:37;;;;;;;3.42;1.60;;;;;;;;;;5059442;28;20024;-86
2023/10/23 12:53:04;;;;;;;3.45;2.03;;;;;;;;;;5070737;28;20537;-87
2023/10/23 12:55:29;;;;;;;3.08;1.48;;;;;;;;;;5056029;28;20024;-86
2023/10/23 12:57:54;;;;;;;6.63;1.77;;;;;;;;;;5079230;28;20028;-88
2023/10/23 13:00:20;;;;;;;1.58;1.48;;;;;;;;;;5051038;28;20060;-87
2023/10/23 13:02:45;;;;;;;2.88;1.83;;;;;;;;;;5054235;28;20001;-86
2023/10/23 13:05:11;;;;;;;4.28;1.40;;;;;;;;;;5078921;28;20032;-88
2023/10/23 13:07:37;;;;;;;2.13;1.52;;;;;;;;;;5048723;28;20174;-88
2023/10/23 13:10:05;;;;;;;3.20;2.00;;;;;;;;;;5076993;28;20044;-87
2023/10/23 13:12:31;;;;;;;3.55;2.20;;;;;;;;;;5064704;28;20043;-85
2023/10/23 13:14:56;;;;;;;1.83;1.58;;;;;;;;;;5090294;28;20025;-87
2023/10/23 13:17:21;;;;;;;2.92;2.05;;;;;;;;;;5095149;28;20111;-85
2023/10/23 13:19:47;;;;;;;3.95;2.25;;;;;;;;;;5094768;28;20035;-88
2023/10/23 13:22:14;;;;;;;4.40;1.90;;;;;;;;;;5086216;28;20047;-86
2023/10/23 13:24:44;;;;;;;4.03;2.25;;;;;;;;;;5089304;28;20058;-86
2023/10/23 13:27:12;;;;;;;4.03;2.22;;;;;;;;;;5085616;28;20235;-86
2023/10/23 13:29:37;;;;;;;4.72;2.30;;;;;;;;;;5075477;28;20017;-87
2023/10/23 13:32:05;;;;;;;2.50;2.03;;;;;;;;;;5062956;28;20033;-86
2023/10/23 13:34:30;;;;;;;3.40;2.20;;;;;;;;;;5053802;28;20036;-87
2023/10/23 13:36:56;;;;;;;5.18;1.95;;;;;;;;;;5069173;28;20036;-86
2023/10/23 13:39:21;;;;;;;4.38;2.08;;;;;;;;;;5074282;28;20036;-89
2023/10/23 13:41:46;;;;;;;5.00;2.10;;;;;;;;;;5084434;28;20020;-88
2023/10/23 13:44:15;;;;;;;3.00;2.00;;;;;;;;;;5059872;28;20167;-87
2023/10/23 13:46:44;;;;;;;3.55;2.10;;;;;;;;;;5056888;28;20025;-88
2023/10/23 13:49:10;;;;;;;3.33;1.52;;;;;;;;;;5053562;28;20192;-88
2023/10/23 13:51:35;;;;;;;3.78;2.33;;;;;;;;;;5057532;28;20124;-87
2023/10/23 13:54:01;;;;;;;6.78;1.90;;;;;;;;;;5069111;28;20378;-86
2023/10/23 14:00:06;;;;;;;2.00;1.75;;;;;;;;;;5032143;28;20042;-88
2023/10/23 14:02:31;;;;;;;3.15;1.75;;;;;;;;;;5052726;28;20032;-88
2023/10/23 14:04:57;;;;;;;3.90;1.92;;;;;;;;;;5043966;28;20039;-88
2023/10/23 14:07:22;;;;;;;3.00;1.95;;;;;;;;;;5041150;28;20029;-88
2023/10/23 14:09:47;;;;;;;4.13;2.35;;;;;;;;;;5070338;28;20438;-88
2023/10/23 14:12:14;;;;;;;6.72;2.00;;;;;;;;;;5062601;28;20025;-87
2023/10/23 14:14:39;;;;;;;4.07;2.08;;;;;;;;;;5064732;28;20024;-87
2023/10/23 14:17:05;;;;;;;5.00;2.20;;;;;;;;;;5066066;28;20025;-87
2023/10/23 14:19:30;;;;;;;2.50;1.98;;;;;;;;;;5045204;28;20116;-86
2023/10/23 14:21:55;;;;;;;2.40;2.20;;;;;;;;;;5053133;28;20018;-87
2023/10/23 14:24:24;;;;;;;4.45;2.35;;;;;;;;;;5047251;28;20031;-88
2023/10/23 14:26:50;;;;;;;3.50;2.28;;;;;;;;;;5063696;28;20381;-88
2023/10/23 14:29:24;;;;;;;4.30;2.00;;;;;;;;;;5065072;28;20039;-88
2023/10/23 14:31:49;;;;;;;3.40;2.63;;;;;;;;;;5055621;28;20017;-87
2023/10/23 14:34:15;;;;;;;3.97;1.88;;;;;;;;;;5051547;28;20038;-86
2023/10/23 14:36:40;;;;;;;2.20;1.90;;;;;;;;;;5062711;28;20048;-87
2023/10/23 14:39:05;;;;;;;3.70;1.98;;;;;;;;;;5072579;28;20035;-86
2023/10/23 14:41:33;;;;;;;2.80;2.00;;;;;;;;;;5077373;28;20051;-86
2023/10/23 14:43:59;;;;;;;3.47;2.10;;;;;;;;;;5051503;28;20027;-86
2023/10/23 14:46:26;;;;;;;2.35;1.88;;;;;;;;;;5063021;28;20028;-86